Delta Virtual Airport Information Service

Islamabad International Airport

ICAO: OPIS Country: Pakistan
Latitude: 33.5491 Longitude: 72.8257
Latest Arrival : DAL751861 (ZWWW-OPIS) Latest Departure : DAL751862 (OPIS-VNKT)


WX CaptureLIVE
Data provided by noaa.gov | Fetched at 00:23:27

METAR : OPIS 080555Z 05008KT 6000 TS FEW030CB SCT040 BKN100 23/10 Q1017 TEMPO 31015G35KT 2000 TSRA FEW030CB

TAF : OPIS 080330Z 0806/0912 24008KT 5000 HZ FEW040 SCT100 TEMPO 0806/0812 32010G20KT


Runway Data for OPIS
Data provided by openaviationdata.com

Runway ID Mag Var Hdg Length Elevation Surface ILS Freq ILS Id ILS Slope

Islamabad International Airport, Pakistan
Use only for reference purposes



Not for navigational purposes.